Time;durP1;ratioP1;P1;durP2;ratioP2;P2;SDS_P1;SDS_P2;PMS_P1;PMS_P2;Temp;Humidity;BMP_temperature;BMP_pressure;BME280_temperature;BME280_humidity;BME280_pressure;Samples;Min_cycle;Max_cycle;Signal;HPM_P1;HPM_P2
2023/09/21 00:00:59;;;;;;;5.55;2.92;;;;;;;14.21;100.00;95828.81;5023108;28;20046;-69
2023/09/21 00:03:31;;;;;;;6.70;2.83;;;;;;;14.28;100.00;95832.25;5017006;28;20068;-68
2023/09/21 00:05:57;;;;;;;7.03;3.20;;;;;;;14.42;100.00;95825.00;5023334;28;20046;-69
2023/09/21 00:08:24;;;;;;;10.52;3.30;;;;;;;14.64;100.00;95825.53;5017120;28;20049;-69
2023/09/21 00:10:50;;;;;;;5.47;3.00;;;;;;;14.67;100.00;95828.22;5022343;28;20084;-69
2023/09/21 00:13:17;;;;;;;6.53;3.17;;;;;;;14.67;100.00;95822.72;5015692;28;20046;-68
2023/09/21 00:15:43;;;;;;;10.20;3.03;;;;;;;14.52;100.00;95827.63;5023006;28;20045;-68
2023/09/21 00:18:09;;;;;;;7.22;3.17;;;;;;;14.31;100.00;95820.44;5022521;28;20081;-65
2023/09/21 00:20:52;;;;;;;5.07;3.40;;;;;;;14.21;100.00;95815.81;5024690;28;20095;-67
2023/09/21 00:23:25;;;;;;;5.35;3.42;;;;;;;14.15;100.00;95820.22;5022930;28;20053;-68
2023/09/21 00:25:55;;;;;;;6.38;3.40;;;;;;;14.27;100.00;95811.41;5021998;28;20096;-69
2023/09/21 00:28:21;;;;;;;5.78;4.05;;;;;;;14.28;100.00;95817.72;5018654;28;20041;-69
2023/09/21 00:30:49;;;;;;;8.13;3.92;;;;;;;14.21;100.00;95813.06;5030887;28;20056;-69
2023/09/21 00:33:15;;;;;;;7.95;3.55;;;;;;;14.34;100.00;95797.53;5017079;28;20114;-68
2023/09/21 00:35:40;;;;;;;9.50;3.72;;;;;;;14.46;100.00;95798.22;5027685;28;20455;-70
2023/09/21 00:38:08;;;;;;;4.40;2.70;;;;;;;14.54;100.00;95796.91;5019558;28;20049;-69
2023/09/21 00:40:43;;;;;;;6.95;3.05;;;;;;;14.47;100.00;95795.00;5026893;28;20484;-69
2023/09/21 00:43:10;;;;;;;4.22;3.10;;;;;;;14.54;100.00;95783.91;5019630;28;20065;-69
2023/09/21 00:45:46;;;;;;;8.75;3.22;;;;;;;14.70;100.00;95788.06;5030779;28;20045;-67
2023/09/21 00:48:23;;;;;;;6.93;2.67;;;;;;;14.77;100.00;95793.47;5009125;28;20045;-68
2023/09/21 00:50:54;;;;;;;3.63;2.50;;;;;;;14.77;100.00;95800.97;5019207;28;20060;-69
2023/09/21 00:53:27;;;;;;;7.88;3.15;;;;;;;14.67;100.00;95792.41;5016293;28;20048;-67
2023/09/21 00:55:57;;;;;;;6.50;2.55;;;;;;;14.62;100.00;95790.13;5021908;28;20466;-68
2023/09/21 00:58:25;;;;;;;8.63;2.80;;;;;;;14.50;100.00;95782.41;5016385;28;20577;-68
2023/09/21 01:00:54;;;;;;;8.13;3.20;;;;;;;14.50;100.00;95782.41;5022507;28;20053;-68
2023/09/21 01:03:20;;;;;;;6.13;2.65;;;;;;;14.64;100.00;95790.50;5016946;28;20527;-69
2023/09/21 01:05:48;;;;;;;8.35;2.55;;;;;;;14.70;100.00;95777.03;5022029;28;20053;-65
2023/09/21 01:08:18;;;;;;;6.47;3.00;;;;;;;14.83;100.00;95775.25;5017808;28;20045;-66
2023/09/21 01:10:49;;;;;;;6.68;2.88;;;;;;;14.49;100.00;95775.31;5020547;28;20476;-69
2023/09/21 01:13:18;;;;;;;4.45;2.72;;;;;;;14.33;100.00;95771.22;5016678;28;20077;-67
2023/09/21 01:16:05;;;;;;;9.35;3.28;;;;;;;14.50;100.00;95758.38;5021209;28;20049;-69
2023/09/21 01:18:31;;;;;;;5.05;2.53;;;;;;;14.64;100.00;95762.13;5020456;28;20593;-69
2023/09/21 01:21:00;;;;;;;9.07;3.15;;;;;;;14.71;100.00;95762.84;5020606;28;20412;-68
2023/09/21 01:23:56;;;;;;;7.28;2.97;;;;;;;14.71;100.00;95760.06;5016256;28;20045;-69
2023/09/21 01:26:22;;;;;;;6.00;2.50;;;;;;;14.69;100.00;95753.41;5007965;28;20057;-69
2023/09/21 01:28:48;;;;;;;4.82;2.70;;;;;;;14.73;100.00;95748.66;5036466;28;20047;-68
2023/09/21 01:31:14;;;;;;;5.38;2.90;;;;;;;14.73;100.00;95745.88;5015737;28;20052;-68
2023/09/21 01:33:40;;;;;;;8.02;2.38;;;;;;;14.74;100.00;95739.16;5027823;28;20064;-68
2023/09/21 01:36:09;;;;;;;4.47;2.55;;;;;;;14.63;100.00;95742.06;5016898;28;20041;-69
2023/09/21 01:38:36;;;;;;;6.80;3.17;;;;;;;14.55;100.00;95740.59;5020862;28;20180;-69
2023/09/21 01:41:01;;;;;;;10.98;3.65;;;;;;;14.36;100.00;95735.75;5020058;28;20044;-68
2023/09/21 01:43:27;;;;;;;7.93;3.00;;;;;;;14.33;100.00;95726.34;5017975;28;20049;-69
2023/09/21 01:45:52;;;;;;;8.60;2.95;;;;;;;14.56;100.00;95724.84;5034655;28;20065;-69
2023/09/21 01:48:21;;;;;;;7.07;3.15;;;;;;;14.69;100.00;95712.06;5024644;28;20049;-69
2023/09/21 01:50:48;;;;;;;9.75;3.33;;;;;;;14.77;100.00;95724.56;5020388;28;20049;-69
2023/09/21 01:53:17;;;;;;;4.95;3.03;;;;;;;14.80;100.00;95717.41;5014245;28;20088;-69
2023/09/21 01:55:43;;;;;;;;;;;;;;;14.82;100.00;95710.28;5020589;28;20128;-69
2023/09/21 01:58:12;;;;;;;6.68;2.60;;;;;;;14.91;100.00;95713.28;5015843;28;20035;-69
2023/09/21 02:00:39;;;;;;;5.60;2.77;;;;;;;14.78;100.00;95719.81;5020084;28;20041;-67
2023/09/21 02:03:08;;;;;;;6.72;3.08;;;;;;;14.64;100.00;95713.34;5016783;28;20296;-68
2023/09/21 02:05:37;;;;;;;10.23;3.20;;;;;;;14.59;100.00;95704.75;5020715;28;20484;-68
2023/09/21 02:08:04;;;;;;;10.82;3.40;;;;;;;14.17;100.00;95701.38;5018578;28;20053;-64
2023/09/21 02:10:30;;;;;;;5.10;3.55;;;;;;;13.73;100.00;95701.16;5019358;28;20064;-70
2023/09/21 02:13:00;;;;;;;3.70;2.92;;;;;;;13.65;100.00;95691.41;5020862;28;20463;-68
2023/09/21 02:15:26;;;;;;;7.78;3.67;;;;;;;13.73;100.00;95692.91;5016113;28;20049;-70
2023/09/21 02:17:56;;;;;;;6.43;3.67;;;;;;;13.44;100.00;95700.72;5020584;28;20049;-68
2023/09/21 02:20:27;;;;;;;11.73;4.30;;;;;;;13.32;100.00;95686.28;5015811;28;20060;-68
2023/09/21 02:22:57;;;;;;;6.53;3.83;;;;;;;13.46;100.00;95676.34;5020268;28;20045;-69
2023/09/21 02:25:24;;;;;;;4.68;3.45;;;;;;;13.55;100.00;95668.34;5014617;28;20515;-68
2023/09/21 02:27:49;;;;;;;7.60;3.47;;;;;;;13.76;100.00;95675.59;5028497;28;20045;-70
2023/09/21 02:30:17;;;;;;;6.45;3.28;;;;;;;13.95;100.00;95677.69;5014786;28;20046;-68
2023/09/21 02:32:51;;;;;;;5.25;3.25;;;;;;;14.12;100.00;95667.63;5020260;28;20052;-67
2023/09/21 02:35:27;;;;;;;6.38;3.20;;;;;;;14.25;100.00;95669.81;5014931;28;20420;-67
2023/09/21 02:37:55;;;;;;;5.90;3.30;;;;;;;14.27;100.00;95667.41;5018954;28;20044;-68
2023/09/21 02:40:22;;;;;;;4.13;3.00;;;;;;;14.19;100.00;95655.75;5017304;28;20052;-68
2023/09/21 02:42:50;;;;;;;9.57;3.13;;;;;;;14.24;100.00;95659.97;5023867;28;20131;-67
2023/09/21 02:45:25;;;;;;;6.93;2.90;;;;;;;14.21;100.00;95667.09;5018790;28;20045;-67
2023/09/21 02:47:54;;;;;;;7.50;2.75;;;;;;;14.24;100.00;95651.72;5021611;28;20052;-68
2023/09/21 02:50:25;;;;;;;4.03;2.83;;;;;;;14.39;100.00;95653.06;5018570;28;20124;-69
2023/09/21 02:52:56;;;;;;;4.72;2.70;;;;;;;14.56;100.00;95658.72;5024348;28;20037;-69
2023/09/21 02:55:26;;;;;;;6.93;2.75;;;;;;;14.57;100.00;95650.03;5024813;28;29080;-68
2023/09/21 02:58:19;;;;;;;4.78;2.63;;;;;;;14.62;100.00;95649.59;5026644;28;20420;-66
2023/09/21 03:00:45;;;;;;;4.72;2.90;;;;;;;14.70;100.00;95640.00;5005452;28;20070;-68
2023/09/21 03:03:14;;;;;;;7.30;2.90;;;;;;;14.77;100.00;95641.09;4998778;28;20128;-67
2023/09/21 03:05:41;;;;;;;3.67;2.75;;;;;;;14.72;100.00;95645.88;5004415;28;20077;-67
2023/09/21 03:08:13;;;;;;;5.85;2.78;;;;;;;14.71;100.00;95643.53;4999548;28;20041;-67
2023/09/21 03:10:45;;;;;;;8.60;2.65;;;;;;;14.70;100.00;95642.75;5003709;28;20045;-68
2023/09/21 03:13:18;;;;;;;5.65;2.63;;;;;;;14.66;100.00;95638.50;4990841;28;20038;-69
2023/09/21 03:15:45;;;;;;;6.28;2.95;;;;;;;14.70;100.00;95641.97;5002731;28;20052;-68
2023/09/21 03:18:10;;;;;;;7.22;2.58;;;;;;;14.76;100.00;95645.81;4998902;28;20461;-67
2023/09/21 03:20:37;;;;;;;5.10;2.50;;;;;;;14.78;100.00;95646.16;5001323;28;20459;-67
2023/09/21 03:23:09;;;;;;;5.10;2.55;;;;;;;14.77;100.00;95639.09;5001512;28;20448;-66
2023/09/21 03:25:46;;;;;;;4.82;2.50;;;;;;;14.75;100.00;95643.47;5012831;28;20053;-69
2023/09/21 03:28:16;;;;;;;4.03;2.45;;;;;;;14.81;100.00;95645.31;4998176;28;20041;-69
2023/09/21 03:30:47;;;;;;;5.85;2.63;;;;;;;14.65;100.00;95640.47;5009178;28;20107;-68
2023/09/21 03:33:15;;;;;;;5.28;2.40;;;;;;;14.67;100.00;95637.31;5004521;28;20129;-69
2023/09/21 03:35:41;;;;;;;3.55;2.50;;;;;;;14.69;100.00;95627.44;5012114;28;20046;-69
2023/09/21 03:38:12;;;;;;;5.97;2.95;;;;;;;14.62;100.00;95630.31;5007810;28;20423;-66
2023/09/21 03:40:42;;;;;;;3.92;2.60;;;;;;;14.49;100.00;95623.78;5009954;28;20069;-70
2023/09/21 03:43:12;;;;;;;4.85;2.50;;;;;;;14.54;100.00;95632.34;5004542;28;20049;-66
2023/09/21 03:45:43;;;;;;;3.95;2.50;;;;;;;14.68;100.00;95634.13;5011512;28;20042;-67
2023/09/21 03:48:10;;;;;;;4.05;2.55;;;;;;;14.71;100.00;95633.31;5006867;28;20048;-66
2023/09/21 03:50:40;;;;;;;6.30;3.08;;;;;;;14.72;100.00;95637.59;5008409;28;20050;-67
2023/09/21 03:53:08;;;;;;;9.80;2.40;;;;;;;14.72;100.00;95637.59;5014602;28;20495;-65
2023/09/21 03:55:35;;;;;;;4.22;2.65;;;;;;;14.76;100.00;95628.50;5003803;28;20045;-68
2023/09/21 03:58:02;;;;;;;8.98;3.10;;;;;;;14.75;100.00;95622.22;5006337;28;20449;-67
2023/09/21 04:00:35;;;;;;;9.70;3.25;;;;;;;14.79;100.00;95616.63;5006708;28;20417;-68
2023/09/21 04:03:06;;;;;;;4.85;2.83;;;;;;;14.80;100.00;95613.47;5011120;28;20042;-67
2023/09/21 04:05:33;;;;;;;6.35;2.60;;;;;;;14.83;100.00;95615.38;5002932;28;20048;-68
2023/09/21 04:07:59;;;;;;;6.18;2.50;;;;;;;14.85;100.00;95614.94;5001040;28;20387;-67
2023/09/21 04:10:25;;;;;;;5.60;2.55;;;;;;;14.86;100.00;95611.00;5002204;28;20049;-68
2023/09/21 04:12:55;;;;;;;4.15;2.80;;;;;;;14.92;100.00;95609.31;5008023;28;20060;-68
2023/09/21 04:15:30;;;;;;;5.95;2.63;;;;;;;14.95;100.00;95607.69;4999485;28;20038;-69
2023/09/21 04:18:01;;;;;;;5.25;2.67;;;;;;;14.95;100.00;95613.22;5006670;28;20046;-69
2023/09/21 04:20:31;;;;;;;6.50;2.88;;;;;;;14.86;100.00;95611.00;5015866;28;20050;-69
2023/09/21 04:22:56;;;;;;;7.18;2.67;;;;;;;14.87;100.00;95609.78;5023655;28;20041;-69
2023/09/21 04:25:22;;;;;;;10.45;2.50;;;;;;;14.76;100.00;95612.72;5024046;28;20529;-68
2023/09/21 04:27:49;;;;;;;5.32;3.40;;;;;;;14.45;100.00;95607.31;5021188;28;20404;-69
2023/09/21 04:30:21;;;;;;;5.07;2.53;;;;;;;14.53;100.00;95592.25;5016859;28;20044;-69
2023/09/21 04:32:47;;;;;;;5.40;3.17;;;;;;;14.47;100.00;95585.63;5019703;28;20045;-69
2023/09/21 04:35:20;;;;;;;9.10;3.53;;;;;;;14.12;100.00;95587.78;5017209;28;20060;-68
2023/09/21 04:37:47;;;;;;;7.43;3.53;;;;;;;14.00;100.00;95593.84;5021434;28;20522;-67
2023/09/21 04:40:13;;;;;;;4.95;3.08;;;;;;;14.16;100.00;95590.47;5023730;28;20095;-68
2023/09/21 04:42:41;;;;;;;6.70;3.17;;;;;;;14.39;100.00;95580.69;5021774;28;20045;-67
2023/09/21 04:45:11;;;;;;;5.30;2.78;;;;;;;14.46;100.00;95594.34;5017486;28;20049;-68
2023/09/21 04:47:43;;;;;;;6.07;3.20;;;;;;;14.52;100.00;95604.44;5022154;28;20132;-68
2023/09/21 04:50:12;;;;;;;4.50;2.88;;;;;;;14.46;100.00;95600.63;5019785;28;20041;-68
2023/09/21 04:52:38;;;;;;;6.47;3.28;;;;;;;14.38;100.00;95601.91;5027430;28;20051;-67
2023/09/21 04:55:08;;;;;;;7.00;3.15;;;;;;;14.32;100.00;95595.34;5031611;28;20048;-65
2023/09/21 04:57:33;;;;;;;6.55;3.38;;;;;;;14.32;100.00;95587.84;5019755;28;20045;-68
2023/09/21 04:59:59;;;;;;;4.10;2.90;;;;;;;14.33;100.00;95600.44;5021391;28;20049;-67
2023/09/21 05:02:25;;;;;;;4.60;2.78;;;;;;;14.36;100.00;95600.78;5014739;28;20528;-67
2023/09/21 05:04:51;;;;;;;4.63;2.90;;;;;;;14.39;100.00;95597.97;5021513;28;20042;-67
2023/09/21 05:07:17;;;;;;;5.95;3.45;;;;;;;14.31;100.00;95596.53;5015886;28;20111;-68
2023/09/21 05:09:44;;;;;;;5.55;2.72;;;;;;;14.18;100.00;95601.06;5019591;28;20046;-68
2023/09/21 05:12:09;;;;;;;10.05;3.50;;;;;;;14.08;100.00;95594.53;5015590;28;20148;-68
2023/09/21 05:14:35;;;;;;;5.22;3.10;;;;;;;13.87;100.00;95588.16;5021575;28;20468;-67
2023/09/21 05:17:00;;;;;;;6.57;3.47;;;;;;;13.86;100.00;95589.31;5021167;28;20052;-67
2023/09/21 05:19:26;;;;;;;4.93;3.85;;;;;;;13.61;100.00;95584.16;5016798;28;20434;-66
2023/09/21 05:21:56;;;;;;;6.93;4.00;;;;;;;13.49;100.00;95587.50;5019421;28;20045;-66
2023/09/21 05:24:23;;;;;;;8.95;4.65;;;;;;;13.41;100.00;95584.03;5015761;28;20069;-67
2023/09/21 05:26:48;;;;;;;8.43;4.50;;;;;;;13.54;100.00;95584.25;5019735;28;20050;-67
2023/09/21 05:29:14;;;;;;;7.93;4.35;;;;;;;13.83;100.00;95576.41;5025637;28;20045;-67
2023/09/21 05:31:39;;;;;;;8.40;4.07;;;;;;;14.47;100.00;95582.09;5019235;28;20436;-67
2023/09/21 05:34:05;;;;;;;6.55;4.00;;;;;;;14.84;100.00;95578.34;5016139;28;20488;-65
2023/09/21 05:36:30;;;;;;;7.53;3.63;;;;;;;14.98;100.00;95576.50;5020536;28;20068;-69
2023/09/21 05:38:55;;;;;;;5.50;2.65;;;;;;;15.07;100.00;95580.28;5020599;28;20056;-67
2023/09/21 05:41:21;;;;;;;8.73;3.38;;;;;;;15.00;100.00;95582.38;5015375;28;20440;-65
2023/09/21 05:43:47;;;;;;;6.35;2.85;;;;;;;14.89;100.00;95580.63;5020181;28;20160;-68
2023/09/21 05:46:12;;;;;;;4.25;2.63;;;;;;;14.79;100.00;95581.56;5014416;28;20037;-68
2023/09/21 05:48:38;;;;;;;8.27;3.85;;;;;;;14.92;100.00;95584.50;5020108;28;20038;-68
2023/09/21 05:51:04;;;;;;;11.80;5.60;;;;;;;15.10;100.00;95589.66;5014078;28;20055;-64
2023/09/21 05:53:31;;;;;;;6.80;3.47;;;;;;;15.26;100.00;95588.97;5020937;28;20076;-67
2023/09/21 05:55:57;;;;;;;9.65;3.63;;;;;;;15.39;100.00;95587.13;5020379;28;20077;-69
2023/09/21 05:58:23;;;;;;;7.93;3.15;;;;;;;15.29;100.00;95577.88;5016274;28;20600;-69
2023/09/21 06:00:49;;;;;;;6.82;3.72;;;;;;;15.40;100.00;95588.69;5021008;28;20041;-68
2023/09/21 06:03:15;;;;;;;6.78;3.55;;;;;;;15.56;100.00;95592.72;5015743;28;20108;-69
2023/09/21 06:05:45;;;;;;;24.20;10.02;;;;;;;15.71;100.00;95587.66;5020743;28;20207;-69
2023/09/21 06:08:10;;;;;;;16.13;5.95;;;;;;;15.94;100.00;95589.56;5015720;28;20052;-68
2023/09/21 06:10:36;;;;;;;11.10;5.90;;;;;;;16.08;100.00;95583.72;5020335;28;20054;-70
2023/09/21 06:13:05;;;;;;;10.32;4.07;;;;;;;15.91;100.00;95588.41;5020724;28;20069;-69
2023/09/21 06:15:31;;;;;;;15.70;3.67;;;;;;;15.90;100.00;95584.13;5002942;28;20053;-68
2023/09/21 06:17:57;;;;;;;10.80;4.13;;;;;;;15.70;100.00;95578.63;5011700;28;20507;-68
2023/09/21 06:20:23;;;;;;;9.35;3.72;;;;;;;15.62;100.00;95575.22;5002228;28;20057;-67
2023/09/21 06:22:48;;;;;;;12.48;4.28;;;;;;;15.83;100.00;95571.25;5009864;28;20050;-65
2023/09/21 06:25:14;;;;;;;11.50;3.25;;;;;;;15.77;100.00;95567.44;5015274;28;20492;-69
2023/09/21 06:27:41;;;;;;;6.50;3.17;;;;;;;15.42;100.00;95561.44;5008993;28;20075;-69
2023/09/21 06:30:07;;;;;;;7.22;3.35;;;;;;;15.34;100.00;95560.06;5017983;28;20067;-67
2023/09/21 06:32:32;;;;;;;8.10;3.80;;;;;;;15.35;100.00;95556.06;5008468;28;20046;-68
2023/09/21 06:34:59;;;;;;;11.15;4.32;;;;;;;15.70;100.00;95558.50;5008875;28;20042;-68
2023/09/21 06:37:26;;;;;;;19.65;5.57;;;;;;;16.07;100.00;95549.00;5007206;28;20145;-67
2023/09/21 06:39:51;;;;;;;18.00;5.07;;;;;;;16.31;100.00;95548.84;5019119;28;20053;-67
2023/09/21 06:42:17;;;;;;;8.43;3.40;;;;;;;16.50;100.00;95550.72;5003462;28;20034;-68
2023/09/21 06:44:43;;;;;;;6.53;3.83;;;;;;;16.10;100.00;95552.88;5011298;28;20045;-68
2023/09/21 06:47:10;;;;;;;9.20;3.45;;;;;;;16.22;100.00;95550.22;5007214;28;20042;-68
2023/09/21 06:49:35;;;;;;;6.68;3.42;;;;;;;16.46;100.00;95547.28;5011924;28;20447;-68
2023/09/21 06:52:02;;;;;;;7.55;3.28;;;;;;;16.69;100.00;95553.81;5011448;28;20049;-66
2023/09/21 06:54:29;;;;;;;11.02;3.33;;;;;;;16.75;100.00;95552.84;5027646;28;20044;-67
2023/09/21 06:57:03;;;;;;;9.88;3.20;;;;;;;16.81;100.00;95553.84;5005671;28;20133;-68
2023/09/21 06:59:29;;;;;;;10.02;3.33;;;;;;;16.82;100.00;95549.91;5021545;28;20041;-67
2023/09/21 07:01:55;;;;;;;9.68;3.30;;;;;;;16.97;100.00;95555.06;5023817;28;20045;-68
2023/09/21 07:04:21;;;;;;;10.52;3.40;;;;;;;17.15;100.00;95552.59;5022885;28;20500;-67
2023/09/21 07:06:46;;;;;;;10.20;3.58;;;;;;;17.30;100.00;95563.25;5027426;28;20122;-68
2023/09/21 07:09:11;;;;;;;12.48;4.53;;;;;;;17.43;100.00;95553.00;5017689;28;20034;-67
2023/09/21 07:11:37;;;;;;;7.97;3.35;;;;;;;17.47;100.00;95559.22;5023012;28;20460;-68
2023/09/21 07:14:05;;;;;;;9.25;3.25;;;;;;;17.61;100.00;95554.47;5020901;28;20057;-67
2023/09/21 07:16:31;;;;;;;9.55;3.60;;;;;;;17.74;100.00;95550.50;5023118;28;20051;-67
2023/09/21 07:18:57;;;;;;;5.82;3.10;;;;;;;17.85;100.00;95566.03;5023856;28;20475;-67
2023/09/21 07:21:23;;;;;;;5.20;3.25;;;;;;;17.55;100.00;95555.00;5018980;28;21003;-68
2023/09/21 07:23:48;;;;;;;5.28;3.38;;;;;;;17.33;100.00;95556.84;5022743;28;20072;-68
2023/09/21 07:26:13;;;;;;;9.32;3.33;;;;;;;17.29;100.00;95547.88;5026345;28;20361;-68
2023/09/21 07:28:39;;;;;;;5.43;3.08;;;;;;;17.13;100.00;95552.25;5028474;28;20057;-69
2023/09/21 07:31:04;;;;;;;7.50;3.05;;;;;;;17.14;100.00;95545.50;5017640;28;20045;-66
2023/09/21 07:33:30;;;;;;;7.18;3.58;;;;;;;17.50;100.00;95540.94;5022544;28;20045;-67
2023/09/21 07:35:56;;;;;;;9.38;3.63;;;;;;;17.30;100.00;95541.88;5023093;28;20042;-67
2023/09/21 07:38:23;;;;;;;6.85;3.20;;;;;;;17.61;100.00;95544.19;5018965;28;20123;-66
2023/09/21 07:40:49;;;;;;;6.28;3.25;;;;;;;18.09;100.00;95547.09;5020289;28;20102;-67
2023/09/21 07:43:14;;;;;;;4.30;3.10;;;;;;;18.57;100.00;95549.91;5015343;28;20500;-66
2023/09/21 07:45:40;;;;;;;6.72;3.35;;;;;;;19.12;100.00;95539.28;5022782;28;20053;-69
2023/09/21 07:48:05;;;;;;;7.10;2.70;;;;;;;19.62;100.00;95548.56;5025475;28;20049;-67
2023/09/21 07:50:34;;;;;;;3.88;2.70;;;;;;;20.09;100.00;95546.03;5021776;28;20369;-68
2023/09/21 07:53:03;;;;;;;3.80;2.47;;;;;;;20.67;100.00;95542.53;5022701;28;20053;-69
2023/09/21 07:55:34;;;;;;;8.20;2.80;;;;;;;22.15;100.00;95529.13;5020579;28;20567;-66
2023/09/21 07:57:59;;;;;;;6.18;2.45;;;;;;;23.12;93.35;95542.38;5022894;28;20331;-67
2023/09/21 08:00:25;;;;;;;8.60;3.35;;;;;;;21.20;100.00;95536.66;5017794;28;20077;-68
2023/09/21 08:02:50;;;;;;;6.35;3.05;;;;;;;22.12;96.02;95538.44;5020861;28;20068;-69
2023/09/21 08:05:15;;;;;;;5.60;2.50;;;;;;;21.52;98.21;95534.47;5017012;28;20042;-67
2023/09/21 08:07:41;;;;;;;6.95;3.00;;;;;;;20.88;100.00;95535.25;5021532;28;20057;-66
2023/09/21 08:10:10;;;;;;;5.40;2.78;;;;;;;21.31;100.00;95530.59;5017035;28;20110;-67
2023/09/21 08:12:38;;;;;;;5.60;2.95;;;;;;;21.10;100.00;95528.75;5022909;28;20493;-66
2023/09/21 08:15:06;;;;;;;4.78;2.60;;;;;;;22.38;97.95;95526.09;5018058;28;20129;-64
2023/09/21 08:17:32;;;;;;;8.32;2.97;;;;;;;24.24;86.04;95526.78;5021797;28;20066;-68
2023/09/21 08:19:57;;;;;;;6.18;2.97;;;;;;;25.23;75.05;95537.47;5035783;28;20044;-68
2023/09/21 08:22:24;;;;;;;5.38;3.00;;;;;;;25.40;70.12;95534.91;5017713;28;20046;-69
2023/09/21 08:24:49;;;;;;;6.13;3.05;;;;;;;25.51;68.84;95527.34;5029895;28;20148;-68
2023/09/21 08:27:15;;;;;;;4.70;2.40;;;;;;;24.53;75.49;95534.34;5016877;28;20148;-67
2023/09/21 08:29:41;;;;;;;6.07;3.00;;;;;;;24.90;72.68;95535.81;5024383;28;20116;-68
2023/09/21 08:32:07;;;;;;;4.22;2.67;;;;;;;24.52;74.74;95534.78;5018373;28;20068;-66
2023/09/21 08:34:32;;;;;;;5.00;2.40;;;;;;;24.80;74.62;95535.22;5028003;28;20073;-68
2023/09/21 08:36:58;;;;;;;9.38;5.10;;;;;;;25.14;72.71;95538.41;5020724;28;20045;-67
2023/09/21 08:39:24;;;;;;;5.65;2.85;;;;;;;25.05;74.12;95539.34;5016702;28;20534;-67
2023/09/21 08:41:51;;;;;;;4.78;2.67;;;;;;;25.13;69.12;95540.44;5021319;28;20072;-67
2023/09/21 08:44:19;;;;;;;8.50;3.20;;;;;;;24.01;78.52;95525.66;5014906;28;20052;-67
2023/09/21 08:46:45;;;;;;;7.57;3.00;;;;;;;25.22;72.86;95544.34;5021019;28;20049;-68
2023/09/21 08:49:13;;;;;;;7.32;2.78;;;;;;;25.25;70.58;95551.81;5014926;28;20326;-69
2023/09/21 08:51:40;;;;;;;6.38;2.55;;;;;;;25.79;70.41;95545.72;5020898;28;20492;-68
2023/09/21 08:54:09;;;;;;;4.47;2.28;;;;;;;26.13;67.53;95544.75;5016714;28;20049;-68
2023/09/21 08:56:38;;;;;;;4.50;2.10;;;;;;;26.10;67.47;95540.13;5021701;28;20045;-67
2023/09/21 08:59:06;;;;;;;3.00;2.20;;;;;;;25.28;68.83;95529.19;5024786;28;20041;-65
2023/09/21 09:01:32;;;;;;;5.28;2.30;;;;;;;25.10;72.61;95538.63;5021453;28;20161;-68
2023/09/21 09:03:58;;;;;;;6.32;2.20;;;;;;;25.94;69.20;95537.97;5022239;28;20158;-68
2023/09/21 09:06:24;;;;;;;5.07;2.67;;;;;;;25.84;70.95;95542.19;5016990;28;20134;-68
2023/09/21 09:08:50;;;;;;;6.72;2.75;;;;;;;25.31;73.88;95528.19;5020948;28;20048;-68
2023/09/21 09:11:36;;;;;;;9.90;3.20;;;;;;;24.92;76.89;95519.28;5015086;28;20068;-69
2023/09/21 09:14:02;;;;;;;5.97;3.10;;;;;;;24.67;77.33;95513.16;5020879;28;20544;-68
2023/09/21 09:16:30;;;;;;;8.45;3.03;;;;;;;24.84;77.46;95510.56;5017866;28;20053;-69
2023/09/21 09:19:00;;;;;;;11.82;3.00;;;;;;;24.79;78.77;95506.44;5020931;28;20100;-67
2023/09/21 09:21:26;;;;;;;6.82;2.97;;;;;;;24.85;78.54;95509.31;5015204;28;20045;-69
2023/09/21 09:23:51;;;;;;;6.53;2.47;;;;;;;24.61;80.70;95504.69;5021379;28;20136;-68
2023/09/21 09:26:18;;;;;;;4.20;2.45;;;;;;;24.59;80.56;95500.81;5016241;28;20219;-68
2023/09/21 09:28:44;;;;;;;6.50;2.22;;;;;;;24.94;79.50;95505.59;5021548;28;20049;-69
2023/09/21 09:31:11;;;;;;;3.97;2.20;;;;;;;25.32;76.64;95500.94;5015994;28;20049;-67
2023/09/21 09:33:38;;;;;;;21.58;14.60;;;;;;;25.67;74.00;95497.94;5020433;28;20061;-68
2023/09/21 09:36:04;;;;;;;7.15;2.50;;;;;;;25.81;73.02;95501.88;5017721;28;20064;-66
2023/09/21 09:38:33;;;;;;;6.22;2.63;;;;;;;25.69;71.93;95503.81;5020441;28;20051;-67
2023/09/21 09:41:04;;;;;;;4.70;2.33;;;;;;;26.68;66.64;95506.31;5019657;28;20051;-68
2023/09/21 09:43:33;;;;;;;4.30;2.22;;;;;;;28.03;61.54;95502.31;5019762;28;20120;-68
2023/09/21 09:46:03;;;;;;;5.50;2.47;;;;;;;28.50;58.52;95504.53;5019694;28;20059;-68
2023/09/21 09:48:32;;;;;;;4.63;2.53;;;;;;;28.37;58.46;95500.22;5022336;28;20052;-68
2023/09/21 09:51:05;;;;;;;6.80;2.40;;;;;;;28.53;57.88;95484.59;5026199;28;20048;-68
2023/09/21 09:53:34;;;;;;;4.43;2.40;;;;;;;28.43;57.51;95486.13;5026943;28;20110;-67
2023/09/21 09:56:08;;;;;;;4.57;2.35;;;;;;;28.17;56.86;95478.75;5027501;28;20092;-68
2023/09/21 09:58:36;;;;;;;4.32;2.08;;;;;;;28.09;54.82;95479.78;5011569;28;20132;-67
2023/09/21 10:01:03;;;;;;;8.57;1.63;;;;;;;27.38;58.41;95475.16;5009375;28;20042;-65
2023/09/21 10:03:35;;;;;;;4.65;2.28;;;;;;;26.67;59.58;95473.91;5013949;28;20100;-69
2023/09/21 10:06:01;;;;;;;4.50;1.60;;;;;;;28.03;56.50;95474.94;5014677;28;20509;-69
2023/09/21 10:08:27;;;;;;;3.90;2.13;;;;;;;28.43;52.28;95483.31;5023732;28;20187;-68
2023/09/21 10:10:57;;;;;;;4.57;1.90;;;;;;;29.24;47.95;95490.97;5027452;28;20452;-68
2023/09/21 10:13:26;;;;;;;3.45;1.63;;;;;;;28.36;49.46;95479.00;5023596;28;20057;-68
2023/09/21 10:16:01;;;;;;;5.78;1.80;;;;;;;27.89;51.56;95473.13;5027533;28;20048;-68
2023/09/21 10:18:44;;;;;;;5.57;2.10;;;;;;;29.57;49.90;95463.84;5013001;28;20045;-68
2023/09/21 10:21:31;;;;;;;4.85;2.03;;;;;;;28.41;52.00;95468.97;5021627;28;20041;-68
2023/09/21 10:24:17;;;;;;;3.80;2.00;;;;;;;28.95;51.10;95474.19;5026682;28;20125;-68
2023/09/21 10:26:49;;;;;;;6.75;1.80;;;;;;;28.66;51.83;95469.97;5029073;28;20053;-68
2023/09/21 10:29:19;;;;;;;5.50;2.10;;;;;;;27.85;54.86;95462.13;5032590;28;20516;-67
2023/09/21 10:31:53;;;;;;;5.50;2.00;;;;;;;27.39;58.24;95452.16;5027046;28;20060;-67
2023/09/21 10:34:21;;;;;;;4.03;1.90;;;;;;;27.68;56.05;95444.50;5030769;28;20045;-67
2023/09/21 10:37:00;;;;;;;6.03;2.15;;;;;;;27.21;55.92;95441.38;5030600;28;20108;-71
2023/09/21 10:39:26;;;;;;;;;;;;;;;28.28;53.92;95438.56;5026984;28;20069;-68
2023/09/21 10:41:53;;;;;;;5.65;1.90;;;;;;;29.33;49.71;95437.09;5031800;28;19948;-70
2023/09/21 10:44:53;;;;;;;6.88;2.22;;;;;;;29.64;47.38;95426.59;5024294;28;20052;-67
2023/09/21 10:47:44;;;;;;;4.68;2.10;;;;;;;29.63;47.37;95431.50;5025835;28;20045;-68
2023/09/21 10:50:12;;;;;;;4.28;1.83;;;;;;;29.89;46.59;95433.09;5016511;28;20212;-68
2023/09/21 10:52:43;;;;;;;4.25;1.63;;;;;;;29.60;45.02;95437.41;5025995;28;20047;-67
2023/09/21 10:55:12;;;;;;;5.05;1.95;;;;;;;28.93;46.12;95428.09;5021085;28;20045;-68
2023/09/21 10:57:38;;;;;;;5.53;1.83;;;;;;;29.39;46.16;95418.09;5027191;28;20590;-67
2023/09/21 11:00:08;;;;;;;3.25;1.65;;;;;;;29.11;44.97;95418.25;5020852;28;20049;-65
2023/09/21 11:02:38;;;;;;;5.65;1.92;;;;;;;29.04;45.38;95418.81;5021373;28;20449;-66
2023/09/21 11:05:06;;;;;;;4.93;1.80;;;;;;;29.02;46.39;95415.75;5018712;28;20389;-65
2023/09/21 11:07:32;;;;;;;3.22;1.63;;;;;;;29.01;46.88;95408.56;5022428;28;20049;-67
2023/09/21 11:09:57;;;;;;;3.63;1.88;;;;;;;28.46;48.53;95395.00;5023508;28;20096;-68
2023/09/21 11:12:25;;;;;;;2.92;1.70;;;;;;;27.48;49.24;95383.69;5019142;28;20128;-68
2023/09/21 11:14:51;;;;;;;6.75;2.20;;;;;;;26.21;53.21;95381.53;5022879;28;20081;-68
2023/09/21 11:17:16;;;;;;;6.63;2.20;;;;;;;26.17;55.51;95375.41;5017944;28;20531;-67
2023/09/21 11:19:43;;;;;;;6.75;1.98;;;;;;;25.62;58.04;95385.75;5022743;28;20084;-67
2023/09/21 11:22:09;;;;;;;3.75;1.95;;;;;;;25.72;59.59;95375.88;5015687;28;20056;-66
2023/09/21 11:24:36;;;;;;;5.53;2.30;;;;;;;26.09;56.46;95372.28;5023451;28;20050;-69
2023/09/21 11:27:03;;;;;;;3.75;2.03;;;;;;;25.90;57.31;95371.91;5020353;28;20049;-67
2023/09/21 11:29:29;;;;;;;6.93;2.13;;;;;;;26.05;58.76;95358.50;5022720;28;20052;-69
2023/09/21 11:31:54;;;;;;;7.40;2.22;;;;;;;26.21;57.63;95354.25;5022271;28;20045;-72